Time;durP1;ratioP1;P1;durP2;ratioP2;P2;SDS_P1;SDS_P2;PMS_P1;PMS_P2;Temp;Humidity;BMP_temperature;BMP_pressure;BME280_temperature;BME280_humidity;BME280_pressure;Samples;Min_cycle;Max_cycle;Signal;HPM_P1;HPM_P2
2022/09/28 00:01:09;;;;;;;7.70;6.57;;;8.40;99.90;;;;;;6309533;22;20425;-55
2022/09/28 00:03:38;;;;;;;7.03;5.57;;;8.40;99.90;;;;;;6308232;22;20387;-58
2022/09/28 00:06:10;;;;;;;8.47;5.83;;;8.40;99.90;;;;;;6307777;22;20456;-57
2022/09/28 00:08:37;;;;;;;7.03;6.10;;;8.40;99.90;;;;;;6308468;22;20765;-58
2022/09/28 00:11:06;;;;;;;6.83;6.23;;;8.40;99.90;;;;;;6309102;22;20418;-59
2022/09/28 00:13:37;;;;;;;6.83;5.60;;;8.40;99.90;;;;;;6309555;22;20421;-56
2022/09/28 00:16:06;;;;;;;7.20;5.70;;;8.40;99.90;;;;;;6309486;22;20490;-57
2022/09/28 00:18:38;;;;;;;8.43;6.17;;;8.40;99.90;;;;;;6309594;22;20511;-54
2022/09/28 00:21:07;;;;;;;6.97;6.00;;;8.40;99.90;;;;;;6309558;22;20448;-56
2022/09/28 00:24:11;;;;;;;9.13;6.17;;;8.40;99.90;;;;;;6309432;22;20417;-58
2022/09/28 00:26:23;;;;;;;4.93;4.43;;;8.40;99.90;;;;;;6309171;22;20511;-55
2022/09/28 00:28:52;;;;;;;5.10;4.60;;;8.40;99.90;;;;;;6309304;22;20519;-58
2022/09/28 00:31:19;;;;;;;5.73;4.53;;;8.30;99.90;;;;;;6308750;22;20418;-58
2022/09/28 00:33:54;;;;;;;5.03;4.53;;;8.40;99.90;;;;;;6309532;22;20434;-57
2022/09/28 00:36:21;;;;;;;5.50;4.67;;;8.40;99.90;;;;;;6309718;22;20868;-59
2022/09/28 00:38:48;;;;;;;6.17;5.53;;;8.30;99.90;;;;;;6310043;22;20420;-57
2022/09/28 00:41:18;;;;;;;5.90;5.30;;;8.30;99.90;;;;;;6308989;22;20444;-58
2022/09/28 00:43:45;;;;;;;6.50;5.50;;;8.30;99.90;;;;;;6309163;22;20415;-57
2022/09/28 00:46:17;;;;;;;6.60;5.90;;;8.30;99.90;;;;;;6309166;22;20391;-52
2022/09/28 00:48:54;;;;;;;6.70;5.77;;;8.20;99.90;;;;;;6308665;22;20412;-57
2022/09/28 00:51:27;;;;;;;8.03;5.53;;;8.30;99.90;;;;;;6308461;22;20416;-59
2022/09/28 00:53:56;;;;;;;6.20;5.60;;;8.30;99.90;;;;;;6307862;22;20416;-57
2022/09/28 00:56:29;;;;;;;5.90;5.23;;;8.30;99.90;;;;;;6309594;22;20395;-61
2022/09/28 00:58:59;;;;;;;6.17;5.57;;;8.20;99.90;;;;;;6309089;22;20417;-60
2022/09/28 01:01:30;;;;;;;7.47;6.00;;;8.30;99.90;;;;;;6309451;22;20513;-57
2022/09/28 01:04:01;;;;;;;6.70;5.80;;;8.20;99.90;;;;;;6309208;22;20397;-60
2022/09/28 01:06:32;;;;;;;6.47;5.83;;;8.30;99.90;;;;;;6309481;22;20457;-57
2022/09/28 01:09:03;;;;;;;8.10;6.13;;;8.30;99.90;;;;;;6309494;22;20391;-57
2022/09/28 01:11:33;;;;;;;7.40;6.33;;;8.20;99.90;;;;;;6309382;22;20452;-54
2022/09/28 01:14:01;;;;;;;8.80;6.67;;;8.20;99.90;;;;;;6308005;22;20427;-54
2022/09/28 01:16:35;;;;;;;8.60;6.73;;;8.20;99.90;;;;;;6310368;22;20391;-55
2022/09/28 01:19:22;;;;;;;7.00;6.13;;;8.20;99.90;;;;;;6311358;22;20391;-58
2022/09/28 01:21:53;;;;;;;6.93;6.20;;;8.20;99.90;;;;;;6311277;22;20455;-56
2022/09/28 01:24:37;;;;;;;7.00;6.27;;;8.20;99.90;;;;;;6310574;22;20532;-59
2022/09/28 01:27:13;;;;;;;7.47;6.77;;;8.20;99.90;;;;;;6311296;22;20481;-58
2022/09/28 01:30:00;;;;;;;6.77;6.10;;;8.20;99.90;;;;;;6310625;22;20390;-55
2022/09/28 01:32:39;;;;;;;7.27;6.30;;;8.20;99.90;;;;;;6310812;22;20391;-56
2022/09/28 01:35:11;;;;;;;7.07;6.37;;;8.20;99.90;;;;;;6311175;22;20390;-56
2022/09/28 01:37:46;;;;;;;11.00;6.73;;;8.20;99.90;;;;;;6311136;22;20724;-56
2022/09/28 01:40:15;;;;;;;7.53;6.83;;;8.20;99.90;;;;;;6311353;22;20394;-56
2022/09/28 01:42:46;;;;;;;8.47;6.07;;;8.20;99.90;;;;;;6311507;22;20423;-57
2022/09/28 01:45:23;;;;;;;7.57;6.77;;;8.20;99.90;;;;;;6310011;22;20416;-58
2022/09/28 01:47:51;;;;;;;7.60;6.47;;;8.10;99.90;;;;;;6310036;22;20511;-58
2022/09/28 01:50:25;;;;;;;7.10;6.40;;;8.10;99.90;;;;;;6310867;22;20666;-59
2022/09/28 01:52:56;;;;;;;9.17;8.23;;;8.20;99.90;;;;;;6310626;22;20490;-56
2022/09/28 01:55:30;;;;;;;7.40;6.40;;;8.10;99.90;;;;;;6310360;22;20433;-56
2022/09/28 01:58:06;;;;;;;8.37;6.37;;;8.10;99.90;;;;;;6310773;22;20444;-57
2022/09/28 02:00:35;;;;;;;6.90;6.03;;;8.00;99.90;;;;;;6311159;22;20862;-57
2022/09/28 02:03:08;;;;;;;7.87;6.60;;;8.00;99.90;;;;;;6310679;22;20523;-56
2022/09/28 02:05:38;;;;;;;8.13;6.90;;;8.10;99.90;;;;;;6310307;22;20391;-58
2022/09/28 02:08:13;;;;;;;7.23;5.43;;;8.00;99.90;;;;;;6310523;22;20390;-55
2022/09/28 02:10:43;;;;;;;7.00;6.30;;;8.00;99.90;;;;;;6311072;22;20430;-55
2022/09/28 02:13:17;;;;;;;6.93;6.20;;;8.00;99.90;;;;;;6309915;22;20783;-57
2022/09/28 02:15:50;;;;;;;7.20;6.50;;;8.00;99.90;;;;;;6311214;22;20422;-57
2022/09/28 02:18:18;;;;;;;8.80;6.90;;;8.10;99.90;;;;;;6310827;22;20455;-56
2022/09/28 02:20:56;;;;;;;8.00;7.30;;;8.10;99.90;;;;;;6310784;22;20421;-55
2022/09/28 02:23:24;;;;;;;7.40;6.60;;;8.10;99.90;;;;;;6309755;22;20898;-56
2022/09/28 02:26:17;;;;;;;8.00;6.03;;;8.10;99.90;;;;;;6309860;22;20447;-58
2022/09/28 02:28:48;;;;;;;8.20;7.30;;;8.10;99.90;;;;;;6310448;22;20416;-57
2022/09/28 02:31:15;;;;;;;10.23;7.10;;;8.10;99.90;;;;;;6309746;22;20463;-57
2022/09/28 02:33:44;;;;;;;9.10;7.50;;;8.10;99.90;;;;;;6309992;22;20421;-57
2022/09/28 02:36:13;;;;;;;12.70;7.80;;;8.10;99.90;;;;;;6310460;22;20424;-54
2022/09/28 02:38:40;;;;;;;9.47;8.47;;;8.00;99.90;;;;;;6310580;22;20421;-57
2022/09/28 02:41:17;;;;;;;11.07;9.50;;;8.00;99.90;;;;;;6310550;22;20553;-58
2022/09/28 02:43:58;;;;;;;10.43;9.33;;;8.10;99.90;;;;;;6309408;22;20421;-51
2022/09/28 02:46:32;;;;;;;10.00;9.00;;;8.00;99.90;;;;;;6309853;22;20387;-58
2022/09/28 02:49:15;;;;;;;11.70;9.47;;;8.00;99.90;;;;;;6309896;22;20424;-51
2022/09/28 02:51:55;;;;;;;9.97;8.60;;;8.00;99.90;;;;;;6310325;22;20410;-55
2022/09/28 02:54:39;;;;;;;13.27;9.13;;;8.00;99.90;;;;;;6310466;22;20799;-56
2022/09/28 02:57:18;;;;;;;10.87;9.80;;;8.00;99.90;;;;;;6310780;22;20507;-58
2022/09/28 02:59:57;;;;;;;10.43;9.33;;;8.00;99.90;;;;;;6309643;22;20412;-57
2022/09/28 03:02:30;;;;;;;11.50;10.37;;;8.00;99.90;;;;;;6310017;22;20534;-57
2022/09/28 03:05:13;;;;;;;13.80;10.40;;;8.00;99.90;;;;;;6309991;22;20423;-61
2022/09/28 03:07:46;;;;;;;18.60;10.70;;;7.90;99.90;;;;;;6309346;22;20849;-60
2022/09/28 03:10:23;;;;;;;12.53;11.20;;;8.00;99.90;;;;;;6310050;22;20715;-57
2022/09/28 03:12:54;;;;;;;13.30;11.90;;;8.00;99.90;;;;;;6310481;22;20487;-61
2022/09/28 03:15:26;;;;;;;16.27;12.97;;;7.90;99.90;;;;;;6309639;22;20417;-58
2022/09/28 03:17:53;;;;;;;16.00;13.83;;;7.90;99.90;;;;;;6309260;22;20416;-59
2022/09/28 03:20:21;;;;;;;20.23;15.43;;;8.00;99.90;;;;;;6309629;22;20417;-59
2022/09/28 03:22:48;;;;;;;15.90;13.93;;;8.00;99.90;;;;;;6308703;22;20444;-58
2022/09/28 03:25:15;;;;;;;20.23;15.60;;;8.00;99.90;;;;;;6308287;22;20535;-59
2022/09/28 03:27:45;;;;;;;17.07;14.33;;;8.00;99.90;;;;;;6309465;22;20759;-58
2022/09/28 03:30:13;;;;;;;16.17;13.80;;;8.00;99.90;;;;;;6309783;22;20422;-58
2022/09/28 03:32:42;;;;;;;16.60;14.90;;;7.90;99.90;;;;;;6310064;22;20391;-59
2022/09/28 03:35:11;;;;;;;17.10;13.87;;;8.00;99.90;;;;;;6309885;22;20501;-57
2022/09/28 03:37:44;;;;;;;18.00;15.50;;;8.00;99.90;;;;;;6309156;22;20398;-57
2022/09/28 03:40:11;;;;;;;16.30;14.20;;;8.00;99.90;;;;;;6309890;22;20397;-57
2022/09/28 03:42:39;;;;;;;16.93;15.13;;;8.00;99.90;;;;;;6309720;22;20455;-59
2022/09/28 03:45:07;;;;;;;17.03;14.87;;;8.00;99.90;;;;;;6310391;22;20440;-60
2022/09/28 03:47:34;;;;;;;16.73;15.03;;;8.10;99.90;;;;;;6308938;22;20423;-58
2022/09/28 03:50:03;;;;;;;20.07;15.77;;;8.00;99.90;;;;;;6309402;22;20430;-58
2022/09/28 03:52:30;;;;;;;17.53;15.23;;;8.00;99.90;;;;;;6309149;22;20470;-58
2022/09/28 03:54:57;;;;;;;16.80;13.90;;;7.90;99.90;;;;;;6310178;22;20515;-59
2022/09/28 03:57:24;;;;;;;18.00;14.10;;;7.90;99.90;;;;;;6308993;22;20487;-59
2022/09/28 03:59:52;;;;;;;18.87;16.73;;;8.00;99.90;;;;;;6308401;22;20519;-59
2022/09/28 04:02:19;;;;;;;17.10;15.17;;;8.00;99.90;;;;;;6309519;22;20444;-59
2022/09/28 04:04:46;;;;;;;17.60;15.77;;;8.00;99.90;;;;;;6309582;22;20707;-54
2022/09/28 04:07:15;;;;;;;18.27;15.87;;;8.00;99.90;;;;;;6308837;22;20785;-59
2022/09/28 04:09:42;;;;;;;21.77;16.93;;;8.00;99.90;;;;;;6309208;22;20390;-58
2022/09/28 04:12:09;;;;;;;21.00;18.10;;;8.00;99.90;;;;;;6308264;22;20412;-58
2022/09/28 04:14:36;;;;;;;18.80;16.73;;;8.00;99.90;;;;;;6309595;22;20490;-58
2022/09/28 04:17:06;;;;;;;21.33;17.30;;;8.00;99.90;;;;;;6309715;22;20494;-57
2022/09/28 04:19:34;;;;;;;19.27;17.10;;;8.10;99.90;;;;;;6309513;22;20428;-58
2022/09/28 04:22:02;;;;;;;25.33;18.20;;;8.10;99.90;;;;;;6309403;22;20760;-57
2022/09/28 04:24:30;;;;;;;20.87;18.67;;;8.00;99.90;;;;;;6308168;22;20455;-57
2022/09/28 04:29:14;;;;;;;25.07;18.77;;;8.00;99.90;;;;;;6309528;22;20515;-58
2022/09/28 04:29:44;;;;;;;23.97;21.27;;;7.90;99.90;;;;;;6308422;22;20518;-58
2022/09/28 04:32:11;;;;;;;24.27;19.23;;;7.90;99.90;;;;;;6309371;22;20860;-59
2022/09/28 04:34:39;;;;;;;23.57;20.97;;;7.90;99.90;;;;;;6309824;22;20427;-57
2022/09/28 04:37:06;;;;;;;25.30;21.33;;;7.90;99.90;;;;;;6309920;22;20528;-59
2022/09/28 04:39:34;;;;;;;26.37;23.03;;;7.90;99.90;;;;;;6308832;22;20915;-59
2022/09/28 04:42:02;;;;;;;25.03;21.10;;;7.90;99.90;;;;;;6309145;22;20426;-59
2022/09/28 04:44:31;;;;;;;25.63;21.93;;;7.80;99.90;;;;;;6309556;22;20422;-56
2022/09/28 04:47:01;;;;;;;24.13;20.07;;;7.90;99.90;;;;;;6309541;22;20515;-59
2022/09/28 04:49:30;;;;;;;22.37;19.27;;;7.90;99.90;;;;;;6309376;22;20517;-58
2022/09/28 04:51:57;;;;;;;23.67;19.77;;;7.90;99.90;;;;;;6311003;22;20774;-56
2022/09/28 04:54:24;;;;;;;20.30;18.00;;;7.90;99.90;;;;;;6311461;22;20416;-57
2022/09/28 04:56:54;;;;;;;21.40;16.80;;;7.90;99.90;;;;;;6311397;22;20416;-59
2022/09/28 04:59:21;;;;;;;19.70;17.60;;;7.90;99.90;;;;;;6310165;22;20514;-59
2022/09/28 05:01:48;;;;;;;23.17;19.07;;;7.90;99.90;;;;;;6310630;22;20533;-59
2022/09/28 05:04:16;;;;;;;25.93;18.90;;;7.90;99.90;;;;;;6311549;22;20450;-60
2022/09/28 05:06:43;;;;;;;22.30;18.03;;;7.90;99.90;;;;;;6310346;22;20424;-60
2022/09/28 05:09:10;;;;;;;20.70;18.50;;;7.90;99.90;;;;;;6311144;22;20433;-60
2022/09/28 05:11:38;;;;;;;21.23;17.60;;;7.80;99.90;;;;;;6309260;22;20417;-60
2022/09/28 05:14:06;;;;;;;22.00;17.00;;;7.80;99.90;;;;;;6310245;22;20507;-59
2022/09/28 05:16:34;;;;;;;19.70;17.37;;;7.80;99.90;;;;;;6311493;22;20421;-59
2022/09/28 05:19:05;;;;;;;19.77;16.67;;;7.90;99.90;;;;;;6311297;22;20433;-60
2022/09/28 05:21:32;;;;;;;20.40;18.23;;;7.90;99.90;;;;;;6309601;22;20821;-60
2022/09/28 05:23:59;;;;;;;19.27;17.10;;;7.90;99.90;;;;;;6308757;22;20853;-59
2022/09/28 05:26:30;;;;;;;20.63;16.77;;;7.90;99.90;;;;;;6309240;22;20395;-59
2022/09/28 05:29:03;;;;;;;22.80;18.20;;;8.00;99.90;;;;;;6310272;22;20786;-60
2022/09/28 05:31:32;;;;;;;21.80;18.30;;;8.00;99.90;;;;;;6309717;22;20395;-60
2022/09/28 05:33:59;;;;;;;23.83;17.77;;;8.00;99.90;;;;;;6310842;22;20387;-59
2022/09/28 05:36:31;;;;;;;22.30;19.80;;;8.00;99.90;;;;;;6309649;22;20443;-53
2022/09/28 05:38:58;;;;;;;21.13;18.67;;;8.00;99.90;;;;;;6309389;22;20519;-63
2022/09/28 05:41:26;;;;;;;23.10;20.57;;;8.00;99.90;;;;;;6310360;22;20766;-63
2022/09/28 05:43:53;;;;;;;25.93;18.77;;;8.00;99.90;;;;;;6310741;22;20538;-63
2022/09/28 05:46:22;;;;;;;23.07;18.67;;;8.10;99.90;;;;;;6310664;22;20420;-63
2022/09/28 05:48:51;;;;;;;24.40;21.53;;;8.10;99.90;;;;;;6311020;22;20886;-63
2022/09/28 05:51:18;;;;;;;25.07;21.30;;;8.00;99.90;;;;;;6310863;22;20905;-62
2022/09/28 05:53:46;;;;;;;29.27;21.33;;;8.10;99.90;;;;;;6310612;22;20423;-62
2022/09/28 05:56:13;;;;;;;25.87;21.93;;;8.10;99.90;;;;;;6310298;22;20530;-62
2022/09/28 05:58:40;;;;;;;24.47;21.33;;;8.20;99.90;;;;;;6310843;22;20694;-63
2022/09/28 06:01:09;;;;;;;23.37;20.20;;;8.20;99.90;;;;;;6310063;22;20394;-62
2022/09/28 06:03:39;;;;;;;27.90;23.30;;;8.20;99.90;;;;;;6310165;22;20532;-63
2022/09/28 06:06:10;;;;;;;26.30;22.03;;;8.30;99.90;;;;;;6310830;22;20511;-62
2022/09/28 06:08:41;;;;;;;26.17;23.30;;;8.20;99.90;;;;;;6310844;22;20507;-63
2022/09/28 06:11:11;;;;;;;26.13;22.20;;;8.30;99.90;;;;;;6310845;22;20415;-62
2022/09/28 06:13:39;;;;;;;25.57;21.67;;;8.30;99.90;;;;;;6310221;22;20485;-62
2022/09/28 06:16:07;;;;;;;22.60;20.20;;;8.30;99.90;;;;;;6310639;22;20423;-62
2022/09/28 06:18:35;;;;;;;26.03;23.03;;;8.40;99.90;;;;;;6310725;22;20474;-62
2022/09/28 06:21:04;;;;;;;26.40;22.40;;;8.50;99.90;;;;;;6311160;22;20444;-62
2022/09/28 06:23:33;;;;;;;26.40;21.70;;;8.50;99.90;;;;;;6309519;22;20521;-62
2022/09/28 06:26:04;;;;;;;31.20;23.00;;;8.50;99.90;;;;;;6310062;22;20770;-63
2022/09/28 06:28:31;;;;;;;25.43;22.67;;;8.50;99.90;;;;;;6310895;22;20826;-63
2022/09/28 06:31:00;;;;;;;29.80;24.20;;;8.60;99.90;;;;;;6310915;22;20495;-64
2022/09/28 06:33:29;;;;;;;28.77;23.80;;;8.40;99.90;;;;;;6309988;22;20511;-64
2022/09/28 06:35:58;;;;;;;32.03;25.10;;;8.50;99.90;;;;;;6310141;22;20420;-63
2022/09/28 06:38:29;;;;;;;29.23;23.30;;;8.30;99.90;;;;;;6310567;22;20410;-63
2022/09/28 06:40:58;;;;;;;27.90;22.87;;;8.40;99.90;;;;;;6310746;22;20697;-63
2022/09/28 06:43:26;;;;;;;27.17;23.80;;;8.40;99.90;;;;;;6310663;22;20446;-63
2022/09/28 06:45:56;;;;;;;26.90;23.97;;;8.40;99.90;;;;;;6309319;22;20416;-63
2022/09/28 06:48:23;;;;;;;29.47;23.77;;;8.30;99.90;;;;;;6310123;22;20514;-64
2022/09/28 06:50:50;;;;;;;25.73;23.00;;;8.40;99.90;;;;;;6310569;22;20420;-63
2022/09/28 06:53:20;;;;;;;26.10;22.97;;;8.40;99.90;;;;;;6310388;22;20515;-64
2022/09/28 06:55:50;;;;;;;25.70;22.70;;;8.40;99.90;;;;;;6309508;22;20473;-65
2022/09/28 06:58:21;;;;;;;24.53;21.93;;;8.40;99.90;;;;;;6310552;22;20803;-64
2022/09/28 07:00:50;;;;;;;28.20;22.83;;;8.40;99.90;;;;;;6309257;22;20538;-64
2022/09/28 07:03:20;;;;;;;26.73;19.37;;;8.50;99.90;;;;;;6309349;22;20470;-64
2022/09/28 07:05:50;;;;;;;23.50;20.57;;;8.40;99.90;;;;;;6310023;22;20397;-63
2022/09/28 07:08:18;;;;;;;22.10;19.80;;;8.30;99.90;;;;;;6310528;22;20515;-63
2022/09/28 07:10:47;;;;;;;26.33;20.93;;;8.30;99.90;;;;;;6310196;22;20394;-63
2022/09/28 07:13:15;;;;;;;27.07;21.33;;;8.30;99.90;;;;;;6310221;22;20696;-63
2022/09/28 07:15:47;;;;;;;23.93;21.27;;;8.30;99.90;;;;;;6308698;22;20394;-64
2022/09/28 07:18:14;;;;;;;24.13;20.27;;;8.40;99.90;;;;;;6309995;22;20903;-64
2022/09/28 07:20:41;;;;;;;24.10;21.20;;;8.40;99.90;;;;;;6308643;22;20397;-64
2022/09/28 07:23:10;;;;;;;18.87;16.97;;;8.40;99.90;;;;;;6309683;22;20513;-64
2022/09/28 07:25:39;;;;;;;21.37;18.47;;;8.50;99.90;;;;;;6308656;22;20721;-63
2022/09/28 07:28:09;;;;;;;20.90;18.80;;;8.50;99.90;;;;;;6309487;22;20401;-63
2022/09/28 07:30:36;;;;;;;21.70;19.40;;;8.40;99.90;;;;;;6309094;22;20422;-63
2022/09/28 07:33:07;;;;;;;20.23;18.03;;;8.40;99.90;;;;;;6309255;22;20854;-63
2022/09/28 07:35:34;;;;;;;20.47;18.37;;;8.40;99.90;;;;;;6309642;22;20424;-63
2022/09/28 07:38:02;;;;;;;19.43;17.33;;;8.40;99.90;;;;;;6309253;22;20424;-62
2022/09/28 07:43:19;;;;;;;19.63;16.90;;;8.40;99.90;;;;;;6309245;22;20806;-63
2022/09/28 07:45:47;;;;;;;18.53;16.50;;;8.40;99.90;;;;;;6310154;22;20420;-65
2022/09/28 07:48:19;;;;;;;18.10;16.20;;;8.40;99.90;;;;;;6309108;22;20850;-66
2022/09/28 07:50:50;;;;;;;18.10;16.20;;;8.30;99.90;;;;;;6309830;22;20424;-65
2022/09/28 07:53:18;;;;;;;17.53;15.73;;;8.30;99.90;;;;;;6309547;22;20503;-65
2022/09/28 07:55:51;;;;;;;18.33;15.50;;;8.30;99.90;;;;;;6309597;22;20493;-64
2022/09/28 07:58:19;;;;;;;19.70;17.70;;;8.30;99.90;;;;;;6309683;22;20498;-64
2022/09/28 08:00:47;;;;;;;19.30;16.23;;;8.40;99.90;;;;;;6308632;22;20514;-64
2022/09/28 08:03:15;;;;;;;17.50;15.67;;;8.50;99.90;;;;;;6308823;22;20447;-63
2022/09/28 08:05:43;;;;;;;17.00;15.30;;;8.50;99.90;;;;;;6309966;22;20416;-63
2022/09/28 08:08:12;;;;;;;18.67;16.57;;;8.60;99.90;;;;;;6308642;22;20397;-63
2022/09/28 08:10:43;;;;;;;19.50;17.13;;;8.50;99.90;;;;;;6310006;22;20842;-63
2022/09/28 08:13:10;;;;;;;18.47;16.57;;;8.50;99.90;;;;;;6309801;22;20412;-63
2022/09/28 08:15:39;;;;;;;18.20;16.40;;;8.50;99.90;;;;;;6309416;22;20422;-63
2022/09/28 08:18:07;;;;;;;18.80;16.90;;;8.50;99.90;;;;;;6308677;22;20519;-63
2022/09/28 08:23:22;;;;;;;21.43;18.43;;;8.60;99.90;;;;;;6308015;22;20454;-63
2022/09/28 08:25:51;;;;;;;23.57;20.63;;;8.60;99.90;;;;;;6311118;22;20414;-62
2022/09/28 08:28:18;;;;;;;23.73;21.27;;;8.60;99.90;;;;;;6312221;22;20523;-64
2022/09/28 08:30:46;;;;;;;25.50;22.43;;;8.60;99.90;;;;;;6312098;22;20827;-64
2022/09/28 08:33:14;;;;;;;27.07;24.23;;;8.60;99.90;;;;;;6311502;22;20418;-63
2022/09/28 08:35:56;;;;;;;26.53;23.60;;;8.70;99.90;;;;;;6312313;22;20523;-63
2022/09/28 08:38:23;;;;;;;26.73;23.30;;;8.70;99.90;;;;;;6312919;22;20849;-63
2022/09/28 08:41:03;;;;;;;26.40;23.57;;;8.60;99.90;;;;;;6312468;22;20416;-63
2022/09/28 08:43:48;;;;;;;29.77;26.57;;;8.60;99.90;;;;;;6312325;22;20439;-63
2022/09/28 08:46:20;;;;;;;28.20;25.20;;;8.70;99.90;;;;;;6311597;22;20412;-63
2022/09/28 08:48:54;;;;;;;31.13;26.23;;;8.70;99.90;;;;;;6310967;22;20486;-63
2022/09/28 08:51:25;;;;;;;30.07;26.77;;;8.60;99.90;;;;;;6310679;22;20423;-63
2022/09/28 08:53:59;;;;;;;29.77;26.60;;;8.70;99.90;;;;;;6311416;22;20420;-63
2022/09/28 08:56:47;;;;;;;27.87;24.37;;;8.90;99.90;;;;;;6312804;22;20695;-62
2022/09/28 08:59:18;;;;;;;26.20;23.50;;;9.10;99.90;;;;;;6313141;22;20438;-63
2022/09/28 09:01:50;;;;;;;28.63;25.60;;;9.30;99.90;;;;;;6312228;22;20765;-62
2022/09/28 09:04:19;;;;;;;25.27;22.70;;;9.40;99.90;;;;;;6312140;22;20505;-62
2022/09/28 09:07:06;;;;;;;24.90;22.30;;;9.30;99.90;;;;;;6313116;22;20519;-62
2022/09/28 09:09:49;;;;;;;21.67;19.47;;;9.30;99.90;;;;;;6312694;22;20514;-62
2022/09/28 09:12:28;;;;;;;23.13;20.43;;;9.20;99.90;;;;;;6312528;22;20442;-62
2022/09/28 09:15:26;;;;;;;21.90;19.60;;;9.40;99.90;;;;;;6313347;22;20408;-63
2022/09/28 09:18:06;;;;;;;21.80;19.70;;;9.50;99.90;;;;;;6289860;22;20539;-62
2022/09/28 09:20:45;;;;;;;22.63;20.30;;;9.50;99.90;;;;;;6312660;22;20426;-62
2022/09/28 09:23:19;;;;;;;22.23;19.10;;;9.60;99.90;;;;;;6312990;22;20492;-62
2022/09/28 09:25:52;;;;;;;23.13;19.80;;;9.50;99.90;;;;;;6312787;22;20435;-61
2022/09/28 09:28:42;;;;;;;23.87;20.80;;;9.50;99.90;;;;;;6312888;22;20391;-61
2022/09/28 09:31:26;;;;;;;23.83;21.37;;;9.50;99.90;;;;;;6312413;22;20846;-62
2022/09/28 09:34:16;;;;;;;22.83;20.60;;;9.50;99.90;;;;;;6312809;22;20493;-62
2022/09/28 09:37:02;;;;;;;21.70;19.37;;;9.50;99.90;;;;;;6310952;22;20888;-63
2022/09/28 09:39:45;;;;;;;20.40;18.23;;;9.50;99.90;;;;;;6311350;22;20456;-61
2022/09/28 09:42:30;;;;;;;18.87;16.87;;;9.50;99.90;;;;;;6310974;22;20416;-62
2022/09/28 09:45:24;;;;;;;16.70;15.00;;;9.60;99.90;;;;;;6310855;22;20419;-62
2022/09/28 09:47:56;;;;;;;16.67;14.97;;;9.60;13.70;;;;;;6310945;22;20501;-62
2022/09/28 09:50:30;;;;;;;18.17;16.37;;;9.70;1.00;;;;;;6310433;22;20416;-62
2022/09/28 09:53:02;;;;;;;16.70;15.00;;;9.70;1.00;;;;;;6310628;22;20515;-60
2022/09/28 09:55:35;;;;;;;15.80;14.33;;;10.00;1.00;;;;;;6310717;22;20421;-62
2022/09/28 09:58:13;;;;;;;13.80;12.60;;;10.20;1.00;;;;;;6310826;22;20420;-62
2022/09/28 10:00:44;;;;;;;14.13;12.83;;;10.10;99.90;;;;;;6309957;22;20682;-59
2022/09/28 10:03:21;;;;;;;13.97;12.47;;;10.00;1.00;;;;;;6310131;22;20462;-61
2022/09/28 10:05:55;;;;;;;13.97;12.67;;;9.90;99.90;;;;;;6310698;22;20469;-61
2022/09/28 10:08:28;;;;;;;13.20;11.87;;;10.00;1.00;;;;;;6310213;22;20416;-61
2022/09/28 10:11:11;;;;;;;12.77;11.50;;;9.90;99.90;;;;;;6310954;22;20780;-60
2022/09/28 10:13:43;;;;;;;13.23;12.03;;;9.60;1.00;;;;;;6310168;22;20391;-61
2022/09/28 10:16:10;;;;;;;15.87;14.27;;;9.70;99.90;;;;;;6310954;22;20420;-61
2022/09/28 10:18:39;;;;;;;15.20;13.80;;;9.70;99.90;;;;;;6311038;22;20467;-61
2022/09/28 10:21:06;;;;;;;15.30;12.90;;;9.60;14.00;;;;;;6310803;22;20391;-60
2022/09/28 10:23:40;;;;;;;14.40;12.10;;;9.60;1.00;;;;;;6309423;22;20420;-63
2022/09/28 10:26:16;;;;;;;13.90;12.70;;;9.60;99.90;;;;;;6310638;22;20863;-64
2022/09/28 10:28:51;;;;;;;12.43;11.33;;;9.60;1.00;;;;;;6310758;22;20415;-64
2022/09/28 10:31:37;;;;;;;13.60;12.37;;;9.70;1.00;;;;;;6309752;22;20459;-63
2022/09/28 10:34:07;;;;;;;14.90;13.50;;;9.50;99.90;;;;;;6309375;22;20470;-63
2022/09/28 10:36:46;;;;;;;14.77;13.47;;;9.70;1.00;;;;;;6309940;22;20869;-63
2022/09/28 10:39:36;;;;;;;15.77;13.50;;;9.80;99.90;;;;;;6309371;22;20816;-63
2022/09/28 10:42:09;;;;;;;15.17;13.57;;;10.00;99.90;;;;;;6309692;22;20507;-62
2022/09/28 10:44:50;;;;;;;14.07;12.77;;;10.00;1.00;;;;;;6310850;22;20415;-63
2022/09/28 10:47:25;;;;;;;13.70;12.40;;;10.00;99.90;;;;;;6309652;22;20474;-63
2022/09/28 10:49:54;;;;;;;15.77;13.00;;;10.00;99.90;;;;;;6310280;22;20416;-62
2022/09/28 10:52:39;;;;;;;13.40;12.00;;;10.20;1.00;;;;;;6310083;22;20497;-62
2022/09/28 10:55:28;;;;;;;12.90;11.70;;;10.30;99.90;;;;;;6309467;22;20820;-62
2022/09/28 10:58:00;;;;;;;12.77;11.67;;;10.60;1.00;;;;;;6310317;22;20486;-62
2022/09/28 11:00:37;;;;;;;13.43;12.13;;;10.60;1.00;;;;;;6310014;22;20470;-62
2022/09/28 11:03:04;;;;;;;12.00;10.97;;;10.70;1.00;;;;;;6310595;22;20510;-62
2022/09/28 11:05:32;;;;;;;10.87;9.87;;;10.70;1.00;;;;;;6309653;22;20452;-62
2022/09/28 11:08:05;;;;;;;12.00;10.80;;;10.60;99.90;;;;;;6309086;22;20423;-61
2022/09/28 11:10:33;;;;;;;11.90;10.90;;;10.50;99.90;;;;;;6308360;22;20427;-62
2022/09/28 11:13:08;;;;;;;10.87;9.83;;;10.70;99.90;;;;;;6308291;22;20489;-62
2022/09/28 11:15:45;;;;;;;9.90;9.00;;;10.90;99.90;;;;;;6309745;22;20411;-62
2022/09/28 11:18:21;;;;;;;9.83;8.93;;;11.10;99.90;;;;;;6310119;22;20419;-62
2022/09/28 11:20:48;;;;;;;9.90;7.77;;;11.40;99.90;;;;;;6308284;22;20513;-62
2022/09/28 11:23:20;;;;;;;8.37;7.50;;;11.50;67.60;;;;;;6309276;22;20416;-62
2022/09/28 11:26:00;;;;;;;7.73;7.00;;;11.60;1.00;;;;;;6308462;22;20451;-62
2022/09/28 11:28:36;;;;;;;8.67;7.30;;;11.10;1.00;;;;;;6309615;22;20518;-62
2022/09/28 11:31:05;;;;;;;8.63;7.83;;;11.20;1.00;;;;;;6309180;22;20395;-62
2022/09/28 11:33:37;;;;;;;7.73;6.80;;;11.00;1.00;;;;;;6309300;22;20391;-60
2022/09/28 11:36:32;;;;;;;8.03;7.33;;;10.90;1.00;;;;;;6309958;22;20801;-62
2022/09/28 11:39:10;;;;;;;9.00;7.73;;;11.10;1.00;;;;;;6309780;22;20519;-62
2022/09/28 11:41:48;;;;;;;14.17;6.93;;;11.10;1.00;;;;;;6309144;22;20488;-60
2022/09/28 11:44:36;;;;;;;7.40;6.70;;;11.40;1.00;;;;;;6308595;22;20420;-59
2022/09/28 11:47:17;;;;;;;7.70;6.90;;;11.60;1.00;;;;;;6308164;22;20784;-59
2022/09/28 11:49:49;;;;;;;6.27;5.77;;;11.80;1.00;;;;;;6308802;22;20482;-60
2022/09/28 11:52:20;;;;;;;7.17;5.90;;;12.00;1.00;;;;;;6308035;22;20456;-58
2022/09/28 11:54:53;;;;;;;6.03;5.53;;;12.90;1.00;;;;;;6308302;22;20672;-60
2022/09/28 11:57:25;;;;;;;6.70;5.97;;;13.80;1.00;;;;;;6307831;22;20420;-60
2022/09/28 11:59:58;;;;;;;6.87;5.40;;;14.10;1.00;;;;;;6308948;22;20769;-59
2022/09/28 12:02:31;;;;;;;6.57;4.67;;;14.20;1.00;;;;;;6306800;22;20413;-61
2022/09/28 12:05:17;;;;;;;6.00;5.03;;;13.90;1.00;;;;;;6307605;22;20517;-61
2022/09/28 12:07:48;;;;;;;6.20;5.60;;;13.40;1.00;;;;;;6307757;22;20470;-59
2022/09/28 12:10:22;;;;;;;8.60;7.70;;;13.20;1.00;;;;;;6308510;22;20421;-59
2022/09/28 12:12:55;;;;;;;6.47;5.87;;;12.90;1.00;;;;;;6307691;22;20490;-60
2022/09/28 12:15:28;;;;;;;6.40;5.17;;;12.60;1.00;;;;;;6307120;22;20865;-61
2022/09/28 12:18:04;;;;;;;6.80;4.80;;;12.50;1.00;;;;;;6308050;22;20416;-61
2022/09/28 12:20:34;;;;;;;5.73;5.23;;;12.30;1.00;;;;;;6308048;22;20412;-60
2022/09/28 12:23:05;;;;;;;6.43;5.93;;;12.20;1.00;;;;;;6307619;22;20765;-61
2022/09/28 12:25:54;;;;;;;18.67;16.87;;;12.20;1.00;;;;;;6307553;22;20486;-60
2022/09/28 12:28:32;;;;;;;28.63;25.17;;;12.00;1.00;;;;;;6308241;22;20460;-61
2022/09/28 12:31:11;;;;;;;12.23;10.47;;;12.10;1.00;;;;;;6308024;22;20914;-62
2022/09/28 12:33:41;;;;;;;8.90;8.20;;;12.10;1.00;;;;;;6308994;22;20705;-62
2022/09/28 12:36:25;;;;;;;11.20;10.20;;;12.10;1.00;;;;;;6308814;22;20703;-62
2022/09/28 12:39:07;;;;;;;5.87;5.37;;;12.40;1.00;;;;;;6308157;22;20419;-63
2022/09/28 12:41:53;;;;;;;4.60;4.20;;;12.60;1.00;;;;;;6308988;22;20733;-63
2022/09/28 12:44:55;;;;;;;4.80;4.20;;;12.70;1.00;;;;;;6309697;22;20709;-63
2022/09/28 12:47:56;;;;;;;4.67;3.90;;;12.80;1.00;;;;;;6301346;22;20477;-63
2022/09/28 12:50:31;;;;;;;5.53;4.27;;;12.90;1.00;;;;;;6308975;22;20470;-63
2022/09/28 12:53:22;;;;;;;6.83;5.20;;;13.10;1.00;;;;;;6308999;22;20518;-62
2022/09/28 12:56:00;;;;;;;7.97;5.23;;;13.40;1.00;;;;;;6308974;22;20413;-63
2022/09/28 12:58:54;;;;;;;6.57;5.30;;;13.50;1.00;;;;;;6308942;22;20482;-63
2022/09/28 13:01:41;;;;;;;5.30;4.53;;;13.50;1.00;;;;;;6307346;22;20515;-63
2022/09/28 13:04:42;;;;;;;4.47;4.07;;;13.20;1.00;;;;;;6309651;22;20499;-63
2022/09/28 13:07:23;;;;;;;4.30;3.40;;;13.20;1.00;;;;;;6306830;22;20396;-63
2022/09/28 13:10:00;;;;;;;4.43;4.03;;;13.20;1.00;;;;;;6307121;22;20448;-63
2022/09/28 13:12:41;;;;;;;4.77;4.20;;;13.20;1.00;;;;;;6310325;22;20427;-63
2022/09/28 13:15:39;;;;;;;4.80;3.23;;;13.30;1.00;;;;;;6310585;22;20915;-63
2022/09/28 13:18:17;;;;;;;4.40;3.63;;;13.70;1.00;;;;;;6291519;22;20424;-63